CCA8008 RCTP-RJFU
Flight info
| Callsign | CCA8008 |
|---|---|
| Flight time | N/A |
| Altitude | 37000 |
| Route | MOLKA1A/05R MOLKA M750 MAMOD Y759 IGMON Z40 FUE V28 DGC Y204 OHGIE STAR RJFU |
| Aircraft | B738/M-SDE2E3FGHIRWXY/L |
Departure
| Time | N/A |
|---|---|
| Airport | Taiwan Taoyuan International Airport (RCTP) |
Arrival
| Time | 2026-05-01 15:18 |
|---|---|
| Airport | Nagasaki Airport (RJFU) |
| Time | Latitude | Longitude | Altitude | Speed | Heading |
|---|---|---|---|---|---|
| 2026-05-01 13:47 | 25.69323 | 123.02620 | 27483 ft | 522 kts | 68° |
| 2026-05-01 13:47 | 25.70593 | 123.06384 | 28226 ft | 521 kts | 68° |
| 2026-05-01 13:47 | 25.71843 | 123.10094 | 28993 ft | 520 kts | 67° |
| 2026-05-01 13:47 | 25.73100 | 123.13830 | 29768 ft | 518 kts | 67° |
| 2026-05-01 13:48 | 25.74356 | 123.17568 | 30500 ft | 518 kts | 67° |
| 2026-05-01 13:48 | 25.75611 | 123.21309 | 31223 ft | 516 kts | 67° |
| 2026-05-01 13:48 | 25.76844 | 123.24987 | 32033 ft | 513 kts | 67° |
| 2026-05-01 13:48 | 25.78081 | 123.28689 | 32901 ft | 508 kts | 67° |
| 2026-05-01 13:49 | 25.79296 | 123.32323 | 33459 ft | 510 kts | 66° |
| 2026-05-01 13:49 | 25.80538 | 123.36041 | 34194 ft | 508 kts | 66° |
| 2026-05-01 13:49 | 25.81750 | 123.39676 | 34961 ft | 505 kts | 66° |
| 2026-05-01 13:49 | 25.82970 | 123.43342 | 35681 ft | 503 kts | 66° |
| 2026-05-01 13:50 | 25.84170 | 123.46947 | 36284 ft | 503 kts | 66° |
| 2026-05-01 13:50 | 25.85399 | 123.50586 | 36810 ft | 503 kts | 64° |
| 2026-05-01 13:50 | 25.86811 | 123.54131 | 37040 ft | 503 kts | 58° |
| 2026-05-01 13:50 | 25.88679 | 123.57319 | 37053 ft | 490 kts | 45° |
| 2026-05-01 13:51 | 25.91095 | 123.59961 | 37051 ft | 479 kts | 32° |
| 2026-05-01 13:51 | 25.96668 | 123.63707 | 37045 ft | 468 kts | 20° |
| 2026-05-01 13:52 | 26.02555 | 123.66856 | 37044 ft | 466 kts | 19° |
| 2026-05-01 13:52 | 26.08471 | 123.69881 | 37049 ft | 466 kts | 18° |
| 2026-05-01 13:53 | 26.14387 | 123.72912 | 37051 ft | 466 kts | 19° |
| 2026-05-01 13:53 | 26.23253 | 123.77513 | 37049 ft | 465 kts | 19° |
| 2026-05-01 13:54 | 26.29084 | 123.80566 | 37052 ft | 465 kts | 19° |
| 2026-05-01 13:54 | 26.34992 | 123.83666 | 37048 ft | 466 kts | 19° |
| 2026-05-01 13:55 | 26.40829 | 123.86739 | 37049 ft | 465 kts | 19° |
| 2026-05-01 13:55 | 26.46727 | 123.89846 | 37050 ft | 465 kts | 20° |
| 2026-05-01 13:56 | 26.52576 | 123.92931 | 37047 ft | 466 kts | 20° |
| 2026-05-01 13:56 | 26.58474 | 123.96046 | 37050 ft | 466 kts | 20° |
| 2026-05-01 13:57 | 26.64276 | 123.99468 | 37050 ft | 471 kts | 28° |
| 2026-05-01 13:57 | 26.69252 | 124.04320 | 37061 ft | 481 kts | 42° |
| 2026-05-01 13:58 | 26.73686 | 124.09988 | 37048 ft | 484 kts | 46° |
| 2026-05-01 13:58 | 26.77995 | 124.15887 | 37054 ft | 485 kts | 46° |
| 2026-05-01 13:59 | 26.82279 | 124.21777 | 37054 ft | 486 kts | 46° |
| 2026-05-01 13:59 | 26.86571 | 124.27631 | 37056 ft | 486 kts | 46° |
| 2026-05-01 14:00 | 26.90907 | 124.33504 | 37054 ft | 487 kts | 46° |
| 2026-05-01 14:00 | 26.95263 | 124.39297 | 37050 ft | 486 kts | 43° |
| 2026-05-01 14:01 | 27.00348 | 124.44072 | 37060 ft | 472 kts | 23° |
| 2026-05-01 14:01 | 27.06303 | 124.47115 | 37048 ft | 467 kts | 17° |
| 2026-05-01 14:02 | 27.12364 | 124.49723 | 37046 ft | 464 kts | 15° |
| 2026-05-01 14:02 | 27.18419 | 124.52296 | 37051 ft | 464 kts | 16° |
| 2026-05-01 14:03 | 27.24465 | 124.54933 | 37058 ft | 465 kts | 16° |
| 2026-05-01 14:03 | 27.30489 | 124.57620 | 37061 ft | 464 kts | 16° |
| 2026-05-01 14:04 | 27.36473 | 124.60319 | 37051 ft | 462 kts | 17° |
| 2026-05-01 14:04 | 27.42443 | 124.63023 | 37062 ft | 463 kts | 17° |
| 2026-05-01 14:05 | 27.48409 | 124.65733 | 37059 ft | 462 kts | 17° |
| 2026-05-01 14:05 | 27.54368 | 124.68442 | 37060 ft | 462 kts | 17° |
| 2026-05-01 14:06 | 27.60337 | 124.71200 | 37061 ft | 463 kts | 19° |
| 2026-05-01 14:06 | 27.66070 | 124.74593 | 37060 ft | 468 kts | 26° |
| 2026-05-01 14:07 | 27.71654 | 124.78461 | 37062 ft | 467 kts | 27° |
| 2026-05-01 14:08 | 27.79941 | 124.84399 | 37064 ft | 467 kts | 27° |
| 2026-05-01 14:08 | 27.85426 | 124.88319 | 37066 ft | 466 kts | 27° |
| 2026-05-01 14:09 | 27.90919 | 124.92220 | 37069 ft | 466 kts | 27° |
| 2026-05-01 14:09 | 27.96438 | 124.96130 | 37067 ft | 468 kts | 27° |
| 2026-05-01 14:10 | 28.01957 | 125.00043 | 37068 ft | 466 kts | 27° |
| 2026-05-01 14:10 | 28.07454 | 125.03943 | 37070 ft | 467 kts | 27° |
| 2026-05-01 14:11 | 28.12931 | 125.07833 | 37067 ft | 466 kts | 27° |
| 2026-05-01 14:11 | 28.21184 | 125.13699 | 37065 ft | 467 kts | 27° |
| 2026-05-01 14:12 | 28.26692 | 125.17621 | 37065 ft | 467 kts | 26° |
| 2026-05-01 14:12 | 28.32208 | 125.21554 | 37061 ft | 467 kts | 26° |
| 2026-05-01 14:13 | 28.36818 | 125.24847 | 37059 ft | 465 kts | 26° |
| 2026-05-01 14:13 | 28.43255 | 125.29447 | 37058 ft | 466 kts | 26° |
| 2026-05-01 14:14 | 28.48750 | 125.33379 | 37054 ft | 465 kts | 26° |
| 2026-05-01 14:14 | 28.54222 | 125.37301 | 37055 ft | 464 kts | 26° |
| 2026-05-01 14:15 | 28.59744 | 125.41261 | 37056 ft | 467 kts | 26° |
| 2026-05-01 14:15 | 28.65172 | 125.45164 | 37054 ft | 463 kts | 26° |
| 2026-05-01 14:16 | 28.70694 | 125.49135 | 37055 ft | 465 kts | 26° |
| 2026-05-01 14:16 | 28.76140 | 125.53057 | 37053 ft | 464 kts | 26° |
| 2026-05-01 14:17 | 28.81599 | 125.56995 | 37054 ft | 462 kts | 26° |
| 2026-05-01 14:17 | 28.87068 | 125.60943 | 37051 ft | 463 kts | 26° |
| 2026-05-01 14:18 | 28.92515 | 125.64881 | 37053 ft | 464 kts | 25° |
| 2026-05-01 14:18 | 28.97087 | 125.68190 | 37050 ft | 462 kts | 26° |
| 2026-05-01 14:19 | 29.03415 | 125.72777 | 37048 ft | 461 kts | 26° |
| 2026-05-01 14:19 | 29.08864 | 125.76730 | 37051 ft | 461 kts | 26° |
| 2026-05-01 14:20 | 29.16979 | 125.82626 | 37051 ft | 462 kts | 26° |
| 2026-05-01 14:21 | 29.22429 | 125.86590 | 37047 ft | 460 kts | 26° |
| 2026-05-01 14:21 | 29.27815 | 125.90520 | 37051 ft | 459 kts | 25° |
| 2026-05-01 14:22 | 29.35921 | 125.96435 | 37050 ft | 460 kts | 25° |
| 2026-05-01 14:22 | 29.41330 | 126.00391 | 37049 ft | 459 kts | 25° |
| 2026-05-01 14:23 | 29.46758 | 126.04366 | 37048 ft | 461 kts | 25° |
| 2026-05-01 14:23 | 29.52139 | 126.08310 | 37050 ft | 461 kts | 25° |
| 2026-05-01 14:24 | 29.57555 | 126.12288 | 37047 ft | 457 kts | 25° |
| 2026-05-01 14:24 | 29.62936 | 126.16239 | 37049 ft | 460 kts | 25° |
| 2026-05-01 14:25 | 29.68388 | 126.20251 | 37048 ft | 461 kts | 25° |
| 2026-05-01 14:25 | 29.73790 | 126.24232 | 37045 ft | 458 kts | 25° |
| 2026-05-01 14:26 | 29.81926 | 126.30237 | 37045 ft | 458 kts | 25° |
| 2026-05-01 14:27 | 29.87309 | 126.34218 | 37047 ft | 458 kts | 24° |
| 2026-05-01 14:27 | 29.92670 | 126.38186 | 37044 ft | 460 kts | 24° |
| 2026-05-01 14:28 | 30.00770 | 126.44191 | 37043 ft | 458 kts | 24° |
| 2026-05-01 14:28 | 30.06136 | 126.48173 | 37041 ft | 461 kts | 24° |
| 2026-05-01 14:29 | 30.11533 | 126.52185 | 37036 ft | 458 kts | 24° |
| 2026-05-01 14:30 | 30.22299 | 126.60210 | 37034 ft | 459 kts | 24° |
| 2026-05-01 14:31 | 30.30373 | 126.66238 | 37026 ft | 457 kts | 24° |
| 2026-05-01 14:31 | 30.35723 | 126.70241 | 37027 ft | 459 kts | 24° |
| 2026-05-01 14:32 | 30.41120 | 126.74277 | 37021 ft | 461 kts | 24° |
| 2026-05-01 14:32 | 30.46524 | 126.78332 | 37022 ft | 460 kts | 24° |
| 2026-05-01 14:33 | 30.51874 | 126.82354 | 37018 ft | 456 kts | 24° |
| 2026-05-01 14:33 | 30.57233 | 126.86382 | 37022 ft | 459 kts | 24° |
| 2026-05-01 14:34 | 30.62594 | 126.90421 | 37031 ft | 459 kts | 24° |
| 2026-05-01 14:34 | 30.67957 | 126.94462 | 37035 ft | 459 kts | 24° |
| 2026-05-01 14:35 | 30.73334 | 126.98523 | 37035 ft | 460 kts | 23° |
| 2026-05-01 14:35 | 30.78735 | 127.02608 | 37032 ft | 457 kts | 23° |
| 2026-05-01 14:36 | 30.84089 | 127.06663 | 37030 ft | 457 kts | 23° |
| 2026-05-01 14:36 | 30.89444 | 127.10721 | 37029 ft | 459 kts | 23° |
| 2026-05-01 14:37 | 30.94772 | 127.14768 | 37028 ft | 455 kts | 23° |
| 2026-05-01 14:37 | 31.00077 | 127.18803 | 37026 ft | 455 kts | 23° |
| 2026-05-01 14:38 | 31.05412 | 127.22854 | 37028 ft | 459 kts | 23° |
| 2026-05-01 14:38 | 31.10744 | 127.26920 | 37021 ft | 455 kts | 23° |
| 2026-05-01 14:39 | 31.16054 | 127.30973 | 37010 ft | 457 kts | 23° |
| 2026-05-01 14:39 | 31.21405 | 127.35059 | 37005 ft | 459 kts | 22° |
| 2026-05-01 14:40 | 31.26653 | 127.39236 | 36995 ft | 461 kts | 26° |
| 2026-05-01 14:40 | 31.31695 | 127.44064 | 36993 ft | 470 kts | 30° |
| 2026-05-01 14:41 | 31.36556 | 127.49058 | 36995 ft | 468 kts | 30° |
| 2026-05-01 14:41 | 31.41452 | 127.54100 | 36992 ft | 465 kts | 30° |
| 2026-05-01 14:42 | 31.46327 | 127.59075 | 36992 ft | 466 kts | 30° |
| 2026-05-01 14:42 | 31.51250 | 127.64065 | 36984 ft | 466 kts | 29° |
| 2026-05-01 14:43 | 31.56181 | 127.69049 | 36982 ft | 464 kts | 30° |
| 2026-05-01 14:43 | 31.61121 | 127.74031 | 36985 ft | 469 kts | 30° |
| 2026-05-01 14:44 | 31.66023 | 127.79003 | 36983 ft | 465 kts | 29° |
| 2026-05-01 14:44 | 31.73397 | 127.86468 | 36979 ft | 465 kts | 30° |
| 2026-05-01 14:45 | 31.80729 | 127.93920 | 36975 ft | 464 kts | 29° |
| 2026-05-01 14:46 | 31.85674 | 127.98939 | 36975 ft | 467 kts | 29° |
| 2026-05-01 14:46 | 31.92982 | 128.06393 | 36964 ft | 464 kts | 29° |
| 2026-05-01 14:47 | 31.97852 | 128.11371 | 36968 ft | 461 kts | 29° |
| 2026-05-01 14:48 | 32.05205 | 128.18880 | 36962 ft | 463 kts | 29° |
| 2026-05-01 14:48 | 32.12517 | 128.26375 | 36962 ft | 468 kts | 29° |
| 2026-05-01 14:49 | 32.22317 | 128.36444 | 36960 ft | 464 kts | 29° |
| 2026-05-01 14:51 | 32.39674 | 128.54359 | 36956 ft | 465 kts | 28° |
| 2026-05-01 14:52 | 32.46954 | 128.61899 | 36832 ft | 469 kts | 28° |
| 2026-05-01 14:52 | 32.51871 | 128.66994 | 35785 ft | 470 kts | 30° |
| 2026-05-01 14:53 | 32.54362 | 128.69582 | 35222 ft | 472 kts | 30° |
| 2026-05-01 14:53 | 32.56845 | 128.72162 | 34670 ft | 472 kts | 30° |
| 2026-05-01 14:53 | 32.59295 | 128.74712 | 34127 ft | 475 kts | 30° |
| 2026-05-01 14:53 | 32.61824 | 128.77335 | 33579 ft | 482 kts | 30° |
| 2026-05-01 14:54 | 32.64320 | 128.80052 | 33069 ft | 490 kts | 33° |
| 2026-05-01 14:54 | 32.66630 | 128.83048 | 32561 ft | 497 kts | 39° |
| 2026-05-01 14:54 | 32.68758 | 128.86345 | 32055 ft | 511 kts | 44° |
| 2026-05-01 14:54 | 32.70740 | 128.89851 | 31555 ft | 516 kts | 47° |
| 2026-05-01 14:55 | 32.72623 | 128.93500 | 31046 ft | 516 kts | 49° |
| 2026-05-01 14:55 | 32.74455 | 128.97218 | 30538 ft | 521 kts | 50° |
| 2026-05-01 14:55 | 32.76232 | 129.00906 | 29980 ft | 522 kts | 50° |
| 2026-05-01 14:55 | 32.78022 | 129.04637 | 29128 ft | 523 kts | 50° |
| 2026-05-01 14:56 | 32.79832 | 129.08405 | 28259 ft | 523 kts | 50° |
| 2026-05-01 14:56 | 32.81640 | 129.12149 | 27388 ft | 523 kts | 50° |
| 2026-05-01 14:56 | 32.83452 | 129.15877 | 26544 ft | 523 kts | 50° |
| 2026-05-01 14:56 | 32.85267 | 129.19595 | 25689 ft | 523 kts | 50° |
| 2026-05-01 14:57 | 32.87109 | 129.23344 | 24834 ft | 523 kts | 50° |
| 2026-05-01 14:57 | 32.90713 | 129.30692 | 23190 ft | 510 kts | 51° |
| 2026-05-01 14:57 | 32.92497 | 129.34326 | 22351 ft | 503 kts | 51° |
| 2026-05-01 14:58 | 32.94243 | 129.37886 | 21554 ft | 496 kts | 51° |
| 2026-05-01 14:58 | 32.95963 | 129.41389 | 20732 ft | 489 kts | 51° |
| 2026-05-01 14:58 | 32.97666 | 129.44858 | 19931 ft | 482 kts | 52° |
| 2026-05-01 14:58 | 32.99349 | 129.48285 | 19105 ft | 475 kts | 52° |
| 2026-05-01 14:59 | 33.00993 | 129.51631 | 18297 ft | 469 kts | 52° |
| 2026-05-01 14:59 | 33.02620 | 129.54947 | 17487 ft | 462 kts | 53° |
| 2026-05-01 14:59 | 33.04227 | 129.58229 | 16672 ft | 455 kts | 53° |
| 2026-05-01 14:59 | 33.05820 | 129.61485 | 15852 ft | 447 kts | 53° |
| 2026-05-01 15:00 | 33.08884 | 129.67764 | 14204 ft | 432 kts | 54° |
| 2026-05-01 15:00 | 33.10386 | 129.70845 | 13393 ft | 425 kts | 54° |
| 2026-05-01 15:00 | 33.11829 | 129.73811 | 12537 ft | 406 kts | 54° |
| 2026-05-01 15:01 | 33.13182 | 129.76611 | 11735 ft | 381 kts | 54° |
| 2026-05-01 15:01 | 33.14458 | 129.79259 | 11231 ft | 351 kts | 54° |
| 2026-05-01 15:01 | 33.15630 | 129.81691 | 11044 ft | 330 kts | 53° |
| 2026-05-01 15:01 | 33.16787 | 129.84064 | 11012 ft | 326 kts | 53° |
| 2026-05-01 15:02 | 33.17944 | 129.86414 | 11003 ft | 328 kts | 53° |
| 2026-05-01 15:02 | 33.18334 | 129.87205 | 10999 ft | 326 kts | 53° |
| 2026-05-01 15:02 | 33.20241 | 129.91104 | 11012 ft | 328 kts | 53° |
| 2026-05-01 15:02 | 33.21426 | 129.93520 | 10910 ft | 350 kts | 53° |
| 2026-05-01 15:03 | 33.22700 | 129.96114 | 10671 ft | 371 kts | 53° |
| 2026-05-01 15:03 | 33.24008 | 129.98796 | 10421 ft | 376 kts | 54° |
| 2026-05-01 15:03 | 33.25322 | 130.01523 | 10292 ft | 379 kts | 54° |
| 2026-05-01 15:03 | 33.26572 | 130.04292 | 10312 ft | 382 kts | 59° |
| 2026-05-01 15:04 | 33.27422 | 130.07303 | 10192 ft | 381 kts | 73° |
| 2026-05-01 15:04 | 33.27386 | 130.10448 | 9936 ft | 376 kts | 96° |
| 2026-05-01 15:04 | 33.26339 | 130.13284 | 9673 ft | 370 kts | 121° |
| 2026-05-01 15:04 | 33.24522 | 130.15398 | 9414 ft | 360 kts | 145° |
| 2026-05-01 15:05 | 33.22308 | 130.16597 | 9171 ft | 346 kts | 166° |
| 2026-05-01 15:05 | 33.19963 | 130.16957 | 8924 ft | 331 kts | 182° |
| 2026-05-01 15:05 | 33.17696 | 130.16913 | 8669 ft | 319 kts | 186° |
| 2026-05-01 15:05 | 33.15515 | 130.16777 | 8424 ft | 310 kts | 187° |
| 2026-05-01 15:06 | 33.13366 | 130.16615 | 8174 ft | 303 kts | 187° |
| 2026-05-01 15:06 | 33.11274 | 130.16457 | 7937 ft | 299 kts | 187° |
| 2026-05-01 15:06 | 33.09207 | 130.16309 | 7688 ft | 297 kts | 187° |
| 2026-05-01 15:06 | 33.07157 | 130.16174 | 7437 ft | 293 kts | 187° |
| 2026-05-01 15:07 | 33.05119 | 130.16045 | 7189 ft | 292 kts | 187° |
| 2026-05-01 15:07 | 33.03104 | 130.15916 | 7018 ft | 288 kts | 187° |
| 2026-05-01 15:07 | 33.01093 | 130.15791 | 6853 ft | 287 kts | 188° |
| 2026-05-01 15:07 | 32.99101 | 130.15663 | 6493 ft | 287 kts | 188° |
| 2026-05-01 15:08 | 32.97113 | 130.15536 | 6130 ft | 285 kts | 187° |
| 2026-05-01 15:08 | 32.95126 | 130.15411 | 5767 ft | 282 kts | 187° |
| 2026-05-01 15:08 | 32.93180 | 130.15289 | 5422 ft | 279 kts | 188° |
| 2026-05-01 15:08 | 32.91259 | 130.15167 | 5077 ft | 276 kts | 187° |
| 2026-05-01 15:09 | 32.89344 | 130.15048 | 4900 ft | 268 kts | 187° |
| 2026-05-01 15:09 | 32.87501 | 130.14932 | 4581 ft | 266 kts | 188° |
| 2026-05-01 15:09 | 32.85696 | 130.14825 | 4503 ft | 250 kts | 188° |
| 2026-05-01 15:09 | 32.84001 | 130.14723 | 4375 ft | 238 kts | 188° |
| 2026-05-01 15:10 | 32.82379 | 130.14621 | 4272 ft | 227 kts | 189° |
| 2026-05-01 15:10 | 32.79608 | 130.13827 | 3982 ft | 180 kts | 229° |
| 2026-05-01 15:10 | 32.78823 | 130.12788 | 3696 ft | 161 kts | 240° |
| 2026-05-01 15:11 | 32.78132 | 130.11793 | 3446 ft | 151 kts | 238° |
| 2026-05-01 15:11 | 32.77365 | 130.09773 | 3257 ft | 128 kts | 283° |
| 2026-05-01 15:11 | 32.77607 | 130.08745 | 3213 ft | 129 kts | 291° |
| 2026-05-01 15:12 | 32.77898 | 130.07735 | 3168 ft | 129 kts | 290° |
| 2026-05-01 15:12 | 32.78464 | 130.05687 | 3071 ft | 129 kts | 292° |
| 2026-05-01 15:12 | 32.78983 | 130.04807 | 2972 ft | 136 kts | 322° |
| 2026-05-01 15:13 | 32.81070 | 130.02632 | 2579 ft | 132 kts | 313° |
| 2026-05-01 15:14 | 32.82457 | 130.01140 | 2235 ft | 127 kts | 314° |
| 2026-05-01 15:14 | 32.83109 | 130.00446 | 2032 ft | 124 kts | 314° |
| 2026-05-01 15:14 | 32.84359 | 129.99121 | 1700 ft | 121 kts | 314° |
| 2026-05-01 15:15 | 32.85623 | 129.97778 | 1359 ft | 121 kts | 314° |
| 2026-05-01 15:15 | 32.86881 | 129.96445 | 1046 ft | 122 kts | 313° |
| 2026-05-01 15:16 | 32.88155 | 129.95096 | 712 ft | 121 kts | 312° |
| 2026-05-01 15:16 | 32.89410 | 129.93768 | 398 ft | 120 kts | 312° |
| 2026-05-01 15:17 | 32.90675 | 129.92433 | 83 ft | 121 kts | 311° |
| 2026-05-01 15:18 | 32.92252 | 129.90730 | 17 ft | 79 kts | 320° |
| 2026-05-01 15:18 | 32.92599 | 129.90373 | 17 ft | 43 kts | 322° |
| 2026-05-01 15:19 | 32.92642 | 129.90338 | 17 ft | 14 kts | 339° |
| 2026-05-01 15:19 | 32.92757 | 129.90358 | 16 ft | 8 kts | 46° |
| 2026-05-01 15:19 | 32.92784 | 129.90420 | 17 ft | 9 kts | 91° |
| 2026-05-01 15:20 | 32.92699 | 129.90553 | 17 ft | 11 kts | 139° |
| 2026-05-01 15:20 | 32.92636 | 129.90617 | 17 ft | 11 kts | 140° |
| 2026-05-01 15:20 | 32.92572 | 129.90685 | 16 ft | 12 kts | 137° |
| 2026-05-01 15:21 | 32.92509 | 129.90759 | 17 ft | 12 kts | 140° |
| 2026-05-01 15:21 | 32.92438 | 129.90830 | 16 ft | 13 kts | 139° |
| 2026-05-01 15:21 | 32.92369 | 129.90903 | 16 ft | 13 kts | 137° |
| 2026-05-01 15:21 | 32.92296 | 129.90977 | 16 ft | 13 kts | 138° |
| 2026-05-01 15:22 | 32.92150 | 129.91135 | 16 ft | 14 kts | 138° |
| 2026-05-01 15:22 | 32.92074 | 129.91217 | 16 ft | 15 kts | 137° |
| 2026-05-01 15:22 | 32.91988 | 129.91310 | 16 ft | 16 kts | 137° |
| 2026-05-01 15:23 | 32.91886 | 129.91420 | 16 ft | 26 kts | 139° |
| 2026-05-01 15:23 | 32.91703 | 129.91612 | 16 ft | 44 kts | 138° |
| 2026-05-01 15:23 | 32.91488 | 129.91844 | 16 ft | 19 kts | 138° |
| 2026-05-01 15:23 | 32.91412 | 129.91931 | 16 ft | 10 kts | 134° |
| 2026-05-01 15:24 | 32.91360 | 129.91998 | 16 ft | 11 kts | 105° |
| 2026-05-01 15:24 | 32.91378 | 129.92076 | 17 ft | 9 kts | 50° |
| 2026-05-01 15:24 | 32.91417 | 129.92127 | 18 ft | 4 kts | 47° |
| 2026-05-01 15:24 | 32.91425 | 129.92136 | 18 ft | 0 kts | 49° |